DWH weather

David Wayne Hooks Memorial Airport
Houston, Texas, United States

Public forecast

Using degrees Fahrenheit for public forecast. Weather courtesy of forecast.io.

METAR (pilot weather report)

Retrieved 2019/08/23 20:53 UTC (38 minutes ago):

KDWH 232053Z 09005KT 10SM CLR 27/24 A2989 RMK AO2 RAE33 SLP119 P0000 60013 T02720239 58006

TAF (pilot weather forecast)

Forecast is more than 12 hours old.

Retrieved 2017/02/07 12:51 UTC (3 years ago):

TAF KDWH 071148Z 0712/0812 20009G15KT P6SM SCT022 OVC030 TEMPO 0712/0715 BKN018 FM071500 23010KT P6SM BKN015 FM071900 25010KT P6SM SCT025 FM080100 22005KT P6SM SCT250 TEMPO 0807/0809 3SM BR BKN013 FM080900 VRB03KT 2SM BR OVC008